KCBM

Columbus AFB Airport

Columbus, Mississippi, USA
METAR KCBM 170256Z AUTO 18008KT 10SM FEW150 27/23 A3010 RMK AO2 SLP193 T02720232 52019 $
Observed Flight Rules
Aug-17 @ 02:56 UTC (an hour ago) Visual Flight Rules
Wind Visibility Clouds
180° at 8 knots 10 miles
  • Few at 15,000' AGL
Temperatures Readings
Current 27°C / 81°F
Dewpoint 23°C / 73°F
Humidity 79%
Altimeter 30.1" Hg
Pressure 1019.3 hPa
Elevation 67
METAR KCBM 170256Z AUTO 18008KT 10SM FEW150 27/23 A3010 RMK AO2 SLP193 T02720232 52019 $
Observed Flight Rules
Aug-17 @ 02:56 UTC
(an hour ago)
VFR
Wind Visibility
180° at 8 knots 10 miles
Clouds
  • Few at 15,000' AGL
Temperature Dewpoint
27°C / 81°F 23°C / 73°F
Humidity Altimeter Pressure
79% 30.1" Hg 1019.3 hPa